createdAt,value
2023-04-27T00:02:07.033Z,94.10
2023-04-27T00:04:34.650Z,94.00
2023-04-27T00:07:02.407Z,94.00
2023-04-27T00:09:29.942Z,94.30
2023-04-27T00:11:57.466Z,94.30
2023-04-27T00:14:25.810Z,94.50
2023-04-27T00:16:53.402Z,94.50
2023-04-27T00:19:20.882Z,94.60
2023-04-27T00:21:48.459Z,94.70
2023-04-27T00:24:15.977Z,94.90
2023-04-27T00:26:43.507Z,95.00
2023-04-27T00:29:11.353Z,95.10
2023-04-27T00:31:38.807Z,95.30
2023-04-27T00:34:07.071Z,95.40
2023-04-27T00:36:34.658Z,95.40
2023-04-27T00:39:02.193Z,95.20
2023-04-27T00:41:29.717Z,95.40
2023-04-27T00:43:58.077Z,95.90
2023-04-27T00:46:25.722Z,95.60
2023-04-27T00:48:53.161Z,95.90
2023-04-27T00:51:20.741Z,95.60
2023-04-27T00:53:48.266Z,95.20
2023-04-27T00:56:15.800Z,95.30
2023-04-27T00:58:44.150Z,95.60
2023-04-27T01:01:11.706Z,95.60
2023-04-27T01:03:39.404Z,96.20
2023-04-27T01:06:06.878Z,96.10
2023-04-27T01:08:34.437Z,96.30
2023-04-27T01:11:02.708Z,96.50
2023-04-27T01:13:30.277Z,96.50
2023-04-27T01:15:57.813Z,96.60
2023-04-27T01:18:25.333Z,96.60
2023-04-27T01:20:53.669Z,96.70
2023-04-27T01:23:21.223Z,96.80
2023-04-27T01:25:49.503Z,96.80
2023-04-27T01:28:17.096Z,96.80
2023-04-27T01:30:44.606Z,96.70
2023-04-27T01:33:12.137Z,96.70
2023-04-27T01:35:40.067Z,96.60
2023-04-27T01:38:07.580Z,96.70
2023-04-27T01:40:35.899Z,96.70
2023-04-27T01:43:04.068Z,96.60
2023-04-27T01:45:31.584Z,96.80
2023-04-27T01:47:59.911Z,97.10
2023-04-27T01:50:27.478Z,97.10
2023-04-27T01:52:55.007Z,97.30
2023-04-27T01:55:22.535Z,97.20
2023-04-27T01:57:50.109Z,97.30
2023-04-27T02:00:18.451Z,97.40
2023-04-27T02:02:46.131Z,97.40
2023-04-27T02:05:13.632Z,97.50
2023-04-27T02:07:41.178Z,97.60
2023-04-27T02:10:08.800Z,97.20
2023-04-27T02:12:36.686Z,97.10
2023-04-27T02:15:05.072Z,96.90
2023-04-27T02:17:33.414Z,96.30
2023-04-27T02:20:00.952Z,96.20
2023-04-27T02:22:28.467Z,95.80
2023-04-27T02:24:56.771Z,96.00
2023-04-27T02:27:25.146Z,96.00
2023-04-27T02:29:52.698Z,96.10
2023-04-27T02:32:20.222Z,96.20
2023-04-27T02:34:48.585Z,96.30
2023-04-27T02:37:16.106Z,96.30
2023-04-27T02:39:43.634Z,96.30
2023-04-27T02:42:11.199Z,96.30
2023-04-27T02:44:38.722Z,96.00
2023-04-27T02:47:06.304Z,96.00
2023-04-27T02:49:34.853Z,96.10
2023-04-27T02:52:01.634Z,96.30
2023-04-27T02:54:29.169Z,96.40
2023-04-27T02:56:56.744Z,96.50
2023-04-27T02:59:25.051Z,96.70
2023-04-27T03:01:52.571Z,96.70
2023-04-27T03:04:21.464Z,97.10
2023-04-27T03:06:48.833Z,97.10
2023-04-27T03:09:16.650Z,97.30
2023-04-27T03:11:43.936Z,97.80
2023-04-27T03:14:12.250Z,97.90
2023-04-27T03:16:39.834Z,97.90
2023-04-27T03:19:07.888Z,97.70
2023-04-27T03:21:35.415Z,97.80
2023-04-27T03:24:02.950Z,97.90
2023-04-27T03:26:31.281Z,98.20
2023-04-27T03:28:58.831Z,98.00
2023-04-27T03:31:26.414Z,98.20
2023-04-27T03:33:54.273Z,98.40
2023-04-27T03:36:21.807Z,98.60
2023-04-27T03:38:49.337Z,98.60
2023-04-27T03:41:17.684Z,99.00
2023-04-27T03:43:45.218Z,99.00
2023-04-27T03:46:12.839Z,99.30
2023-04-27T03:48:41.137Z,99.80
2023-04-27T03:51:08.677Z,99.80
2023-04-27T03:53:36.990Z,99.90
2023-04-27T03:56:04.550Z,99.90
2023-04-27T03:58:32.117Z,99.90
2023-04-27T04:00:59.652Z,99.90
2023-04-27T04:03:28.891Z,99.90
2023-04-27T04:05:56.224Z,99.90
2023-04-27T04:08:23.754Z,99.90
2023-04-27T04:10:53.074Z,99.90
2023-04-27T04:13:20.596Z,99.90
2023-04-27T04:15:48.967Z,99.90
2023-04-27T04:18:16.491Z,99.90
2023-04-27T04:20:44.017Z,99.90
2023-04-27T04:23:11.568Z,99.90
2023-04-27T04:25:39.929Z,99.90
2023-04-27T04:28:08.232Z,99.90
2023-04-27T04:30:35.757Z,99.90
2023-04-27T04:33:04.161Z,99.90
2023-04-27T04:35:31.680Z,99.90
2023-04-27T04:37:59.201Z,99.90
2023-04-27T04:40:26.779Z,99.90
2023-04-27T04:42:54.320Z,99.90
2023-04-27T04:45:21.842Z,99.90
2023-04-27T04:47:50.212Z,99.90
2023-04-27T04:50:17.721Z,99.90
2023-04-27T04:52:45.275Z,99.90
2023-04-27T04:55:12.845Z,99.90
2023-04-27T04:57:40.377Z,99.90
2023-04-27T05:00:08.039Z,99.90
2023-04-27T05:02:35.745Z,99.90
2023-04-27T05:05:03.131Z,99.90
2023-04-27T05:07:31.436Z,99.90
2023-04-27T05:09:59.040Z,99.90
2023-04-27T05:12:26.606Z,99.90
2023-04-27T05:14:54.137Z,99.90
2023-04-27T05:17:21.822Z,99.90
2023-04-27T05:19:50.045Z,99.90
2023-04-27T05:22:17.576Z,99.90
2023-04-27T05:24:46.191Z,99.90
2023-04-27T05:27:13.712Z,99.90
2023-04-27T05:29:41.235Z,99.90
2023-04-27T05:32:08.958Z,99.90
2023-04-27T05:34:36.359Z,99.90
2023-04-27T05:37:03.868Z,99.90
2023-04-27T05:39:31.434Z,99.90
2023-04-27T05:41:58.965Z,99.90
2023-04-27T05:44:27.273Z,99.90
2023-04-27T05:46:54.855Z,99.90
2023-04-27T05:49:22.370Z,99.90
2023-04-27T05:51:50.683Z,99.90
2023-04-27T05:54:18.267Z,99.90
2023-04-27T05:56:45.783Z,99.90
2023-04-27T05:59:13.419Z,99.90
2023-04-27T06:01:41.682Z,99.90
2023-04-27T06:04:09.354Z,99.90
2023-04-27T06:06:36.744Z,99.90
2023-04-27T06:09:04.320Z,99.90
2023-04-27T06:11:31.857Z,99.90
2023-04-27T06:13:59.383Z,99.90
2023-04-27T06:16:27.106Z,99.90
2023-04-27T06:18:55.254Z,99.90
2023-04-27T06:21:22.783Z,99.90
2023-04-27T06:23:50.368Z,99.90
2023-04-27T06:26:17.886Z,99.90
2023-04-27T06:28:45.418Z,99.90
2023-04-27T06:31:13.097Z,99.90
2023-04-27T06:33:40.516Z,99.90
2023-04-27T06:36:08.111Z,99.90
2023-04-27T06:38:35.702Z,99.90
2023-04-27T06:41:03.994Z,99.90
2023-04-27T06:43:31.548Z,99.90
2023-04-27T06:46:00.269Z,99.90
2023-04-27T06:48:27.713Z,99.90
2023-04-27T06:50:55.198Z,99.90
2023-04-27T06:53:23.573Z,99.90
2023-04-27T06:55:51.882Z,99.90
2023-04-27T06:58:19.385Z,99.90
2023-04-27T07:00:47.336Z,99.90
2023-04-27T07:03:15.083Z,99.90
2023-04-27T07:05:42.409Z,99.90
2023-04-27T07:08:09.995Z,99.90
2023-04-27T07:10:37.524Z,99.90
2023-04-27T07:13:07.338Z,99.90
2023-04-27T07:15:32.650Z,99.90
2023-04-27T07:18:00.189Z,99.90
2023-04-27T07:20:28.442Z,99.90
2023-04-27T07:22:56.026Z,99.90
2023-04-27T07:25:23.542Z,99.90
2023-04-27T07:27:51.074Z,99.90
2023-04-27T07:30:19.441Z,99.30
2023-04-27T07:32:46.991Z,99.40
2023-04-27T07:35:14.509Z,99.10
2023-04-27T07:37:42.393Z,99.00
2023-04-27T07:40:09.988Z,98.70
2023-04-27T07:42:37.522Z,98.20
2023-04-27T07:45:05.883Z,98.00
2023-04-27T07:47:33.452Z,97.90
2023-04-27T07:50:00.971Z,97.80
2023-04-27T07:52:29.590Z,97.60
2023-04-27T07:54:57.117Z,97.50
2023-04-27T07:57:25.424Z,96.40
2023-04-27T07:59:53.778Z,96.40
2023-04-27T08:02:21.485Z,96.20
2023-04-27T08:04:49.951Z,95.60
2023-04-27T08:07:17.649Z,95.60
2023-04-27T08:09:45.563Z,95.10
2023-04-27T08:12:13.090Z,95.10
2023-04-27T08:14:41.504Z,94.70
2023-04-27T08:17:09.036Z,94.60
2023-04-27T08:19:36.555Z,94.20
2023-04-27T08:22:04.148Z,94.20
2023-04-27T08:24:31.692Z,93.60
2023-04-27T08:26:59.190Z,93.00
2023-04-27T08:29:28.810Z,92.00
2023-04-27T08:31:56.485Z,91.60
2023-04-27T08:34:21.868Z,91.50
2023-04-27T08:36:49.449Z,91.50
2023-04-27T08:39:16.986Z,91.10
2023-04-27T08:41:44.519Z,90.60
2023-04-27T08:44:12.848Z,90.20
2023-04-27T08:46:40.475Z,90.20
2023-04-27T08:49:08.069Z,90.00
2023-04-27T08:51:35.843Z,89.20
2023-04-27T08:54:03.385Z,88.10
2023-04-27T08:56:30.922Z,87.80
2023-04-27T08:58:59.543Z,86.40
2023-04-27T09:01:27.099Z,86.30
2023-04-27T09:04:00.749Z,85.90
2023-04-27T09:06:33.995Z,86.00
2023-04-27T09:09:02.235Z,85.30
2023-04-27T09:11:32.454Z,85.20
2023-04-27T09:14:00.010Z,84.90
2023-04-27T09:16:27.613Z,84.60
2023-04-27T09:18:55.859Z,86.00
2023-04-27T09:21:23.440Z,85.20
2023-04-27T09:23:50.986Z,84.70
2023-04-27T09:26:24.398Z,83.70
2023-04-27T09:28:52.002Z,83.70
2023-04-27T09:31:19.551Z,83.20
2023-04-27T09:33:47.058Z,80.90
2023-04-27T09:36:14.614Z,80.20
2023-04-27T09:38:42.166Z,79.70
2023-04-27T09:41:09.722Z,79.30
2023-04-27T09:43:37.277Z,79.30
2023-04-27T09:46:05.035Z,78.90
2023-04-27T09:48:33.103Z,79.50
2023-04-27T09:51:00.667Z,78.80
2023-04-27T09:53:36.827Z,78.20
2023-04-27T09:56:35.386Z,78.20
2023-04-27T09:59:36.379Z,77.30
2023-04-27T10:02:17.077Z,76.50
2023-04-27T10:05:05.501Z,76.40
2023-04-27T10:07:33.749Z,75.90
2023-04-27T10:10:03.758Z,75.00
2023-04-27T10:12:34.366Z,75.00
2023-04-27T10:15:11.607Z,74.60
2023-04-27T10:17:39.201Z,74.50
2023-04-27T10:20:09.613Z,73.70
2023-04-27T10:22:46.772Z,73.30
2023-04-27T10:25:14.297Z,72.90
2023-04-27T10:27:41.828Z,71.90
2023-04-27T10:30:09.423Z,71.20
2023-04-27T10:32:37.009Z,70.20
2023-04-27T10:35:04.481Z,68.10
2023-04-27T10:37:40.975Z,67.50
2023-04-27T10:40:08.599Z,67.50
2023-04-27T10:42:36.133Z,67.70
2023-04-27T10:45:03.708Z,68.10
2023-04-27T10:47:43.311Z,68.10
2023-04-27T10:50:13.718Z,67.50
2023-04-27T10:52:41.141Z,67.20
2023-04-27T10:55:18.358Z,67.30
2023-04-27T10:57:45.841Z,67.20
2023-04-27T11:00:16.228Z,66.60
2023-04-27T11:02:42.011Z,66.60
2023-04-27T11:05:18.213Z,65.40
2023-04-27T11:07:45.822Z,65.70
2023-04-27T11:10:15.814Z,65.00
2023-04-27T11:12:43.317Z,63.80
2023-04-27T11:15:10.894Z,62.30
2023-04-27T11:17:38.428Z,61.90
2023-04-27T11:20:06.187Z,61.60
2023-04-27T11:22:33.768Z,61.40
2023-04-27T11:25:01.295Z,61.30
2023-04-27T11:27:28.819Z,60.90
2023-04-27T11:29:56.399Z,61.00
2023-04-27T11:32:24.763Z,60.90
2023-04-27T11:34:53.667Z,60.00
2023-04-27T11:37:25.386Z,59.70
2023-04-27T11:39:52.914Z,59.30
2023-04-27T11:42:26.333Z,58.60
2023-04-27T11:44:59.700Z,58.70
2023-04-27T11:47:30.793Z,58.60
2023-04-27T11:49:58.299Z,58.50
2023-04-27T11:52:31.728Z,58.40
2023-04-27T11:54:59.264Z,58.20
2023-04-27T11:57:29.244Z,58.10
2023-04-27T11:59:56.797Z,57.90
2023-04-27T12:02:24.408Z,57.80
2023-04-27T12:04:52.131Z,57.50
2023-04-27T12:07:19.714Z,56.50
2023-04-27T12:09:47.244Z,56.40
2023-04-27T12:12:15.547Z,56.70
2023-04-27T12:14:43.418Z,56.70
2023-04-27T12:17:11.050Z,56.50
2023-04-27T12:19:38.598Z,56.00
2023-04-27T12:22:06.930Z,55.60
2023-04-27T12:24:34.474Z,55.80
2023-04-27T12:27:01.988Z,55.80
2023-04-27T12:29:29.571Z,55.70
2023-04-27T12:31:57.863Z,55.90
2023-04-27T12:34:25.407Z,55.90
2023-04-27T12:36:53.741Z,56.00
2023-04-27T12:39:21.274Z,55.90
2023-04-27T12:41:48.796Z,55.90
2023-04-27T12:44:16.659Z,56.20
2023-04-27T12:46:46.401Z,56.40
2023-04-27T12:49:11.473Z,55.90
2023-04-27T12:51:39.824Z,55.40
2023-04-27T12:54:07.372Z,55.40
2023-04-27T12:56:34.891Z,55.30
2023-04-27T12:59:02.458Z,55.20
2023-04-27T13:01:30.635Z,55.10
2023-04-27T13:04:01.838Z,55.20
2023-04-27T13:06:29.974Z,55.00
2023-04-27T13:08:57.499Z,55.00
2023-04-27T13:11:25.025Z,55.30
2023-04-27T13:13:54.088Z,55.20
2023-04-27T13:16:21.728Z,55.20
2023-04-27T13:18:49.141Z,55.80
2023-04-27T13:21:17.498Z,55.20
2023-04-27T13:23:45.021Z,55.20
2023-04-27T13:26:12.578Z,54.90
2023-04-27T13:28:40.434Z,54.00
2023-04-27T13:31:07.972Z,53.80
2023-04-27T13:33:35.506Z,53.90
2023-04-27T13:36:03.094Z,53.80
2023-04-27T13:38:30.629Z,54.00
2023-04-27T13:40:58.933Z,54.40
2023-04-27T13:43:26.500Z,53.80
2023-04-27T13:45:54.027Z,53.80
2023-04-27T13:48:22.328Z,53.40
2023-04-27T13:50:50.206Z,53.30
2023-04-27T13:53:17.740Z,53.30
2023-04-27T13:55:45.368Z,53.40
2023-04-27T13:58:12.938Z,53.90
2023-04-27T14:00:40.482Z,54.30
2023-04-27T14:03:08.114Z,53.90
2023-04-27T14:05:36.312Z,54.20
2023-04-27T14:08:03.844Z,54.10
2023-04-27T14:10:31.369Z,53.60
2023-04-27T14:12:59.738Z,54.30
2023-04-27T14:15:27.275Z,54.30
2023-04-27T14:17:54.838Z,54.10
2023-04-27T14:20:22.466Z,54.10
2023-04-27T14:22:50.728Z,54.30
2023-04-27T14:25:18.577Z,54.30
2023-04-27T14:27:47.514Z,54.80
2023-04-27T14:30:15.041Z,54.80
2023-04-27T14:32:42.652Z,54.40
2023-04-27T14:35:10.916Z,54.20
2023-04-27T14:37:38.436Z,54.10
2023-04-27T14:40:06.060Z,54.30
2023-04-27T14:42:34.198Z,53.60
2023-04-27T14:45:01.742Z,53.10
2023-04-27T14:47:29.384Z,53.10
2023-04-27T14:49:57.596Z,53.30
2023-04-27T14:52:25.142Z,53.50
2023-04-27T14:54:52.762Z,53.60
2023-04-27T14:57:22.088Z,53.00
2023-04-27T14:59:49.615Z,53.00
2023-04-27T15:02:17.931Z,53.20
2023-04-27T15:04:46.294Z,52.80
2023-04-27T15:07:13.795Z,52.80
2023-04-27T15:09:41.306Z,52.60
2023-04-27T15:12:09.196Z,52.30
2023-04-27T15:14:36.758Z,52.40
2023-04-27T15:17:04.331Z,51.50
2023-04-27T15:19:32.619Z,52.00
2023-04-27T15:22:00.152Z,51.60
2023-04-27T15:24:27.666Z,51.80
2023-04-27T15:26:56.289Z,51.90
2023-04-27T15:29:23.809Z,51.90
2023-04-27T15:31:52.231Z,52.50
2023-04-27T15:34:19.723Z,51.80
2023-04-27T15:36:47.247Z,52.10
2023-04-27T15:39:14.940Z,52.30
2023-04-27T15:41:42.358Z,52.40
2023-04-27T15:44:09.891Z,52.60
2023-04-27T15:46:37.453Z,52.60
2023-04-27T15:49:05.005Z,52.90
2023-04-27T15:51:33.302Z,53.10
2023-04-27T15:54:00.837Z,53.00
2023-04-27T15:56:30.764Z,53.40
2023-04-27T15:58:56.726Z,53.40
2023-04-27T16:01:24.317Z,53.60
2023-04-27T16:03:51.963Z,53.70
2023-04-27T16:06:19.390Z,53.40
2023-04-27T16:08:48.074Z,53.40
2023-04-27T16:11:15.636Z,54.40
2023-04-27T16:13:43.154Z,53.80
2023-04-27T16:16:11.495Z,53.60
2023-04-27T16:18:39.852Z,53.60
2023-04-27T16:21:07.383Z,53.70
2023-04-27T16:23:34.946Z,54.00
2023-04-27T16:26:02.532Z,54.10
2023-04-27T16:28:30.070Z,54.30
2023-04-27T16:30:57.584Z,54.50
2023-04-27T16:33:25.179Z,54.50
2023-04-27T16:35:52.714Z,54.40
2023-04-27T16:38:21.038Z,54.40
2023-04-27T16:40:48.575Z,54.30
2023-04-27T16:43:16.107Z,54.70
2023-04-27T16:45:44.456Z,55.20
2023-04-27T16:48:12.024Z,55.10
2023-04-27T16:50:39.535Z,55.30
2023-04-27T16:53:09.678Z,55.50
2023-04-27T16:55:37.253Z,55.90
2023-04-27T16:58:04.770Z,56.00
2023-04-27T17:00:32.359Z,56.10
2023-04-27T17:03:01.545Z,56.40
2023-04-27T17:05:29.014Z,56.40
2023-04-27T17:07:56.540Z,56.30
2023-04-27T17:10:24.104Z,56.30
2023-04-27T17:12:51.642Z,56.50
2023-04-27T17:15:19.919Z,57.00
2023-04-27T17:17:48.357Z,56.90
2023-04-27T17:20:15.852Z,56.80
2023-04-27T17:22:44.168Z,57.20
2023-04-27T17:25:11.854Z,57.20
2023-04-27T17:27:39.304Z,57.40
2023-04-27T17:30:08.141Z,57.50
2023-04-27T17:32:34.756Z,57.60
2023-04-27T17:35:02.270Z,57.40
2023-04-27T17:37:29.795Z,57.70
2023-04-27T17:39:57.377Z,57.70
2023-04-27T17:42:24.895Z,57.90
2023-04-27T17:44:52.451Z,58.10
2023-04-27T17:47:20.035Z,58.10
2023-04-27T17:49:47.534Z,58.20
2023-04-27T17:52:15.059Z,58.40
2023-04-27T17:54:42.626Z,58.50
2023-04-27T17:57:10.162Z,58.70
2023-04-27T17:59:37.701Z,59.00
2023-04-27T18:02:06.250Z,59.30
2023-04-27T18:04:33.924Z,59.50
2023-04-27T18:07:02.064Z,60.00
2023-04-27T18:09:30.895Z,60.00
2023-04-27T18:11:57.178Z,60.40
2023-04-27T18:14:24.707Z,60.20
2023-04-27T18:16:53.098Z,62.00
2023-04-27T18:19:20.581Z,61.20
2023-04-27T18:21:48.097Z,61.70
2023-04-27T18:24:16.444Z,63.00
2023-04-27T18:26:43.984Z,62.90
2023-04-27T18:29:11.553Z,62.80
2023-04-27T18:31:39.162Z,63.20
2023-04-27T18:34:06.625Z,63.50
2023-04-27T18:36:34.968Z,64.50
2023-04-27T18:39:02.520Z,64.50
2023-04-27T18:41:30.074Z,65.00
2023-04-27T18:43:57.628Z,65.50
2023-04-27T18:46:25.235Z,65.80
2023-04-27T18:48:52.726Z,66.10
2023-04-27T18:51:20.245Z,66.40
2023-04-27T18:53:47.852Z,66.80
2023-04-27T18:56:15.383Z,67.10
2023-04-27T18:58:43.688Z,67.80
2023-04-27T19:01:12.046Z,67.80
2023-04-27T19:03:38.897Z,68.10
2023-04-27T19:06:06.348Z,68.30
2023-04-27T19:08:33.922Z,68.60
2023-04-27T19:11:01.448Z,68.90
2023-04-27T19:13:28.991Z,69.20
2023-04-27T19:15:57.330Z,70.40
2023-04-27T19:18:24.900Z,69.70
2023-04-27T19:20:52.384Z,70.60
2023-04-27T19:23:20.752Z,70.70
2023-04-27T19:25:48.295Z,70.70
2023-04-27T19:28:21.163Z,71.10
2023-04-27T19:30:48.768Z,71.60
2023-04-27T19:33:16.800Z,71.00
2023-04-27T19:35:43.787Z,70.60
2023-04-27T19:38:12.540Z,72.00
2023-04-27T19:40:39.956Z,71.40
2023-04-27T19:43:07.492Z,71.90
2023-04-27T19:45:35.844Z,73.30
2023-04-27T19:48:03.406Z,73.20
2023-04-27T19:50:30.917Z,73.70
2023-04-27T19:52:58.566Z,74.10
2023-04-27T19:55:26.097Z,73.60
2023-04-27T19:57:54.413Z,74.10
2023-04-27T20:00:21.984Z,74.50
2023-04-27T20:02:49.661Z,75.00
2023-04-27T20:05:18.081Z,75.70
2023-04-27T20:07:45.885Z,75.60
2023-04-27T20:10:13.418Z,75.90
2023-04-27T20:12:55.344Z,76.60
2023-04-27T20:15:09.569Z,76.60
2023-04-27T20:17:37.176Z,77.20
2023-04-27T20:20:05.451Z,78.50
2023-04-27T20:22:33.372Z,78.40
2023-04-27T20:25:00.944Z,79.00
2023-04-27T20:27:29.223Z,79.20
2023-04-27T20:29:56.806Z,79.10
2023-04-27T20:32:24.345Z,79.70
2023-04-27T20:34:51.860Z,81.50
2023-04-27T20:37:20.227Z,81.40
2023-04-27T20:39:47.751Z,81.40
2023-04-27T20:42:15.296Z,82.40
2023-04-27T20:44:42.899Z,83.80
2023-04-27T20:47:10.429Z,85.70
2023-04-27T20:49:37.991Z,87.10
2023-04-27T20:52:05.552Z,89.10
2023-04-27T20:54:33.076Z,89.00
2023-04-27T20:57:03.175Z,89.80
2023-04-27T20:59:30.701Z,90.20
2023-04-27T21:01:58.308Z,90.50
2023-04-27T21:04:25.995Z,90.90
2023-04-27T21:06:53.410Z,91.30
2023-04-27T21:09:20.943Z,91.30
2023-04-27T21:11:48.502Z,91.50
2023-04-27T21:14:16.259Z,91.30
2023-04-27T21:16:43.689Z,91.20
2023-04-27T21:19:11.154Z,90.70
2023-04-27T21:21:38.719Z,91.10
2023-04-27T21:24:08.254Z,91.80
2023-04-27T21:26:33.829Z,92.60
2023-04-27T21:29:01.483Z,93.50
2023-04-27T21:31:29.127Z,94.70
2023-04-27T21:33:56.517Z,95.80
2023-04-27T21:36:24.097Z,97.00
2023-04-27T21:38:51.659Z,98.10
2023-04-27T21:41:19.231Z,98.70
2023-04-27T21:43:46.795Z,99.30
2023-04-27T21:46:14.377Z,99.90
2023-04-27T21:48:41.852Z,99.90
2023-04-27T21:51:09.420Z,99.90
2023-04-27T21:53:36.953Z,99.90
2023-04-27T21:56:04.514Z,99.90
2023-04-27T21:58:32.848Z,99.90
2023-04-27T22:01:00.365Z,99.90
2023-04-27T22:03:28.089Z,99.90
2023-04-27T22:05:55.519Z,99.90
2023-04-27T22:08:23.056Z,99.90
2023-04-27T22:10:50.622Z,99.90
2023-04-27T22:13:19.581Z,99.90
2023-04-27T22:15:45.813Z,99.90
2023-04-27T22:18:13.284Z,99.90
2023-04-27T22:20:41.145Z,99.90
2023-04-27T22:23:08.690Z,99.90
2023-04-27T22:25:36.229Z,99.90
2023-04-27T22:28:03.794Z,99.90
2023-04-27T22:30:32.135Z,99.90
2023-04-27T22:32:59.665Z,99.90
2023-04-27T22:35:28.211Z,99.90
2023-04-27T22:37:56.378Z,99.90
2023-04-27T22:40:23.866Z,99.90
2023-04-27T22:42:51.485Z,99.90
2023-04-27T22:45:19.006Z,99.90
2023-04-27T22:47:46.606Z,99.90
2023-04-27T22:50:14.131Z,99.90
2023-04-27T22:52:44.165Z,99.90
2023-04-27T22:55:11.663Z,99.90
2023-04-27T22:57:39.254Z,99.90
2023-04-27T23:00:06.884Z,99.90
2023-04-27T23:02:34.553Z,99.90
2023-04-27T23:05:02.134Z,99.90
2023-04-27T23:07:29.690Z,99.90
2023-04-27T23:09:57.212Z,99.90
2023-04-27T23:12:25.554Z,99.90
2023-04-27T23:14:53.095Z,99.90
2023-04-27T23:17:20.637Z,99.90
2023-04-27T23:19:48.812Z,99.90
2023-04-27T23:22:16.357Z,99.90
2023-04-27T23:24:43.886Z,99.90
2023-04-27T23:27:12.310Z,99.90
2023-04-27T23:29:39.845Z,99.90
2023-04-27T23:32:07.390Z,99.90
2023-04-27T23:34:35.751Z,99.90
2023-04-27T23:37:03.296Z,99.90
2023-04-27T23:39:31.039Z,99.90
2023-04-27T23:41:58.681Z,99.90
2023-04-27T23:44:26.206Z,99.90
2023-04-27T23:46:54.533Z,99.90
2023-04-27T23:49:22.113Z,99.90
2023-04-27T23:51:49.660Z,99.90
2023-04-27T23:54:17.374Z,99.90
2023-04-27T23:56:44.795Z,99.90
2023-04-27T23:59:12.331Z,99.90
